Wilson Lista — 8PRW — position and weather

sailwx.info

Track history (hours):
 
Tides and Currents Weather Stations Pressure Air Temp Water Temp Dewpoint Dewpoint Depression Visibility Wind Speed Wind Dir Waves Ship Positions

Wilson Lista

Last reported at 2017-May-24 01:28 UTC. Time now 2017-May-24 10:02 UTC.
Position N 53°07' E 004°28'.

Length 88 m; draft 5.6 m.

Type: Cargo ship. MMSI: 314188000.

Date/timePositionNaut miles runAvg speedWind from/ knotsBaromVisibWave heightAir tempDewpointWater temp
2017-May-24 01:28N 53°07' E 004°28'511.1
2017-May-24 01:00N 53°02' E 004°24'510.8
2017-May-24 00:30N 52°57' E 004°19'510.7
2017-May-24 00:00N 52°53' E 004°15'510.2
2017-May-23 23:30N 52°48' E 004°10'5 9.9
2017-May-23 22:57N 52°44' E 004°05'97 9.3
2017-May-23 12:29N 51°31' E 002°21'511.3
2017-May-23 12:00N 51°26' E 002°16'611.2
2017-May-23 11:30N 51°21' E 002°11'611.4
2017-May-23 11:00N 51°17' E 002°06'611.8
2017-May-23 10:30N 51°12' E 001°60'612.0
2017-May-23 10:00N 51°09' E 001°52'612.2
2017-May-23 09:30N 51°05' E 001°45'612.5
2017-May-23 09:00N 50°60' E 001°38'81 9.7
2017-May-23 00:39N 49°57' E 000°19'1 7.9
2017-May-23 00:29N 49°56' E 000°18'4 7.9
2017-May-23 00:00N 49°53' E 000°14'4 8.0
2017-May-22 23:30N 49°50' E 000°10'4 8.4
2017-May-22 23:00N 49°46' E 000°06'4 9.1
2017-May-22 22:31N 49°43' E 000°02'5 9.2
2017-May-22 22:00N 49°39' W 000°01'5 9.2
2017-May-22 21:30N 49°34' W 000°04'5 9.0
2017-May-22 21:00N 49°30' W 000°05'4 8.3
2017-May-22 20:30N 49°27' E 000°00'4 8.1
2017-May-22 20:00N 49°26' E 000°06'4 8.5
2017-May-22 19:30N 49°26' E 000°13'4 7.9
2017-May-22 19:00N 49°26' E 000°19'4 7.1
2017-May-22 18:30N 49°27' E 000°24'3 6.4
2017-May-22 18:00N 49°29' E 000°28'2 4.7
2017-May-22 17:30N 49°28' E 000°32'3 5.7
2017-May-22 16:59N 49°26' E 000°35'3 6.3
2017-May-22 16:29N 49°27' E 000°39'6 0.2
2017-May-21 04:52N 49°27' E 000°49'6 6.9
2017-May-21 03:59N 49°29' E 000°40'5 9.5
2017-May-21 03:31N 49°26' E 000°34'5 9.3
2017-May-21 03:01N 49°28' E 000°28'611.4
2017-May-21 02:30N 49°26' E 000°20'510.7
2017-May-21 02:01N 49°26' E 000°11'510.3
2017-May-21 01:31N 49°27' E 000°04'510.2
2017-May-21 01:01N 49°29' W 000°03'4 7.7
2017-May-21 00:31N 49°30' W 000°09'2 4.7
2017-May-21 00:01N 49°32' W 000°11'4 8.4
2017-May-20 23:31N 49°36' W 000°11'4 8.4
2017-May-20 23:01N 49°40' W 000°11'4 8.6
2017-May-20 22:30N 49°45' W 000°10'4 8.7
2017-May-20 22:00N 49°49' W 000°10'4 8.5
2017-May-20 21:30N 49°53' W 000°09'4 8.7
2017-May-20 21:00N 49°57' W 000°08'4 8.8
2017-May-20 20:31N 50°02' W 000°08'4 8.6
2017-May-20 20:01N 50°06' W 000°06'4 8.6
2017-May-20 19:31N 50°10' W 000°05'5 9.0
2017-May-20 18:59N 50°15' W 000°04'4 9.0
2017-May-20 18:30N 50°19' W 000°03'6 8.8
2017-May-20 17:53N 50°25' W 000°03'3 6.8
2017-May-20 17:30N 50°27' W 000°01'4 7.3
2017-May-20 17:00N 50°28' E 000°04'4 7.1
2017-May-20 16:31N 50°29' E 000°10'3 6.9
2017-May-20 16:00N 50°30' E 000°15'4 6.8
2017-May-20 15:29N 50°31' E 000°20'3 7.0
2017-May-20 14:59N 50°32' E 000°25'4 7.4
2017-May-20 14:29N 50°33' E 000°31'8 7.7
2017-May-20 13:30N 50°37' E 000°41'10 8.5
2017-May-20 12:23N 50°43' E 000°53'19 8.8
2017-May-20 10:14N 50°54' E 001°17'2 8.4
2017-May-20 09:58N 50°56' E 001°20'5 8.2
2017-May-20 09:24N 50°59' E 001°25'3 7.7
2017-May-20 09:01N 51°01' E 001°28'3 6.7
2017-May-20 08:30N 51°04' E 001°32'4 7.5
2017-May-20 08:00N 51°06' E 001°36'4 7.4
2017-May-20 07:30N 51°09' E 001°40'4 7.4
2017-May-20 07:01N 51°12' E 001°44'4 8.1
2017-May-20 06:30N 51°15' E 001°48'4 7.9
2017-May-20 06:01N 51°18' E 001°52'4 7.9
2017-May-20 05:31N 51°21' E 001°55'4 8.3
2017-May-20 05:01N 51°25' E 001°59'4 8.8
2017-May-20 04:30N 51°29' E 002°03'5 9.0
2017-May-20 04:00N 51°32' E 002°08'5 9.4
2017-May-20 03:28N 51°36' E 002°13'20 9.7
2017-May-20 01:25N 51°51' E 002°34'11 9.3
2017-May-20 00:15N 51°59' E 002°45'3 8.8
2017-May-19 23:57N 52°01' E 002°48'51 7.8
2017-May-19 17:20N 52°31' E 003°56'3 8.3
2017-May-19 17:00N 52°31' E 004°01'4 8.1
2017-May-19 16:31N 52°31' E 004°07'4 8.1
2017-May-19 16:01N 52°31' E 004°14'4 8.1
2017-May-19 15:30N 52°30' E 004°20'4 8.0
2017-May-19 15:00N 52°29' E 004°27'6 5.6
2017-May-19 14:00N 52°28' E 004°36'2 4.5
2017-May-19 13:31N 52°28' E 004°39'4 8.2
2017-May-19 12:58N 52°26' E 004°46'2 3.8
2017-May-19 12:25N 52°25' E 004°49'0 0.1
2017-May-19 12:01N 52°25' E 004°49'0 0.1
2017-May-19 11:30N 52°25' E 004°49'0 0.0
2017-May-19 11:00N 52°25' E 004°49'0 0.0
2017-May-19 10:20N 52°25' E 004°49'0 0.0
2017-May-19 09:56N 52°25' E 004°49'0 0.0
2017-May-19 09:20N 52°25' E 004°49'0 0.1
2017-May-19 09:00N 52°25' E 004°49'0 0.0
2017-May-19 08:31N 52°25' E 004°49'0 0.1
2017-May-19 07:58N 52°25' E 004°49'0 0.0
2017-May-19 07:28N 52°25' E 004°49'0 0.0
2017-May-19 06:42N 52°25' E 004°49'0 0.0
2017-May-19 06:30N 52°25' E 004°49'0 0.0
2017-May-19 06:00N 52°25' E 004°49'0 0.0
2017-May-19 05:30N 52°25' E 004°49'0 0.0
2017-May-19 04:53N 52°25' E 004°49'0 0.1
2017-May-19 04:31N 52°25' E 004°49'0 0.1
2017-May-19 04:00N 52°25' E 004°49'0 0.0
2017-May-19 03:30N 52°25' E 004°49'0 0.0
2017-May-19 02:58N 52°25' E 004°49'0 0.0
2017-May-19 02:30N 52°25' E 004°49'0 0.1
2017-May-19 02:00N 52°25' E 004°49'0 0.0
2017-May-19 01:29N 52°25' E 004°49'0 0.1
2017-May-19 00:56N 52°25' E 004°49'0 0.0
2017-May-19 00:30N 52°25' E 004°49'0 0.0
2017-May-18 23:59N 52°25' E 004°49'0 0.0
2017-May-18 23:30N 52°25' E 004°49'0 0.0
2017-May-18 22:59N 52°25' E 004°49'0 0.0
2017-May-18 22:31N 52°25' E 004°49'2 3.4
2017-May-18 22:01N 52°26' E 004°46'4 7.9
2017-May-18 21:30N 52°27' E 004°40'3 3.3
2017-May-18 20:30N 52°28' E 004°35'3 5.1
2017-May-18 20:00N 52°28' E 004°31'510.0
2017-May-18 19:31N 52°28' E 004°23'510.3
2017-May-18 19:00N 52°29' E 004°14'5 9.3
2017-May-18 18:30N 52°28' E 004°06'5 9.1
2017-May-18 17:56N 52°27' E 003°58'80 8.4
2017-May-18 08:29N 51°33' E 002°23'5 9.6
2017-May-18 08:00N 51°29' E 002°19'510.1
2017-May-18 07:30N 51°25' E 002°15'510.0
2017-May-18 07:00N 51°21' E 002°10'611.4
2017-May-18 06:30N 51°16' E 002°05'611.6
2017-May-18 06:00N 51°12' E 001°59'510.6
2017-May-18 05:30N 51°09' E 001°52'510.7
2017-May-18 05:00N 51°05' E 001°46'611.2
2017-May-18 04:30N 51°01' E 001°40'611.8
2017-May-18 04:00N 50°57' E 001°34'272 6.9
2017-May-16 12:17N 50°33' W 005°35'2 7.7
2017-May-16 12:00N 50°35' W 005°33'4 7.6
2017-May-16 11:30N 50°37' W 005°28'4 7.5
2017-May-16 11:00N 50°40' W 005°24'4 7.3
2017-May-16 10:30N 50°42' W 005°19'3 6.9
2017-May-16 10:00N 50°44' W 005°15'3 6.6
2017-May-16 09:30N 50°46' W 005°11'3 6.3
2017-May-16 09:00N 50°48' W 005°07'3 6.0
2017-May-16 08:30N 50°50' W 005°03'3 6.0
2017-May-16 08:00N 50°52' W 004°60'3 5.8
2017-May-16 07:30N 50°54' W 004°56'3 5.7
2017-May-16 07:00N 50°56' W 004°53'3 5.9
2017-May-16 06:30N 50°58' W 004°49'3 5.8
2017-May-16 06:00N 50°60' W 004°46'3 5.7
2017-May-16 05:30N 51°02' W 004°42'3 5.9
2017-May-16 05:00N 51°03' W 004°39'3 6.2
2017-May-16 04:30N 51°05' W 004°35'3 6.2
2017-May-16 04:00N 51°07' W 004°31'9 7.1
2017-May-16 02:47N 51°13' W 004°21'2 7.9
2017-May-16 02:30N 51°14' W 004°18'4910.1
2017-May-15 21:39N 51°29' W 003°03'2 9.8
2017-May-15 21:28N 51°31' W 003°01'4 1.0
2017-May-15 17:45N 51°34' W 002°58'0 0.0
2017-May-15 17:23N 51°34' W 002°58'0 0.0
2017-May-15 16:59N 51°34' W 002°58'0 0.0
2017-May-15 12:59N 51°34' W 002°58'0 0.0
2017-May-15 09:38N 51°34' W 002°58'0 0.0
2017-May-15 09:01N 51°34' W 002°58'0 0.0
2017-May-15 08:43N 51°34' W 002°58'0 0.0
2017-May-15 06:31N 51°34' W 002°58'0 0.9
2017-May-15 06:30N 51°34' W 002°58'0 0.0
2017-May-15 05:57N 51°34' W 002°58'0 0.0
2017-May-15 04:39N 51°34' W 002°58'0 0.0
2017-May-15 04:26N 51°34' W 002°58'0 0.0
2017-May-15 03:56N 51°34' W 002°58'0 0.0
2017-May-15 03:26N 51°34' W 002°58'0 0.0
2017-May-15 02:55N 51°34' W 002°58'0 0.0
2017-May-15 00:06N 51°34' W 002°58'0 0.0
2017-May-14 23:54N 51°34' W 002°58'0 0.0
2017-May-14 23:30N 51°34' W 002°58'0 0.0
2017-May-14 22:51N 51°34' W 002°58'0 0.0
2017-May-14 20:57N 51°34' W 002°58'2 2.8
2017-May-14 20:12N 51°32' W 002°58'210.7
2017-May-14 20:00N 51°30' W 003°00'  
Track history (hours):
 
Tides and Currents Weather Stations Pressure Air Temp Water Temp Dewpoint Dewpoint Depression Visibility Wind Speed Wind Dir Waves Ship Positions

Wilson Lista

Last reported at 2017-May-24 01:28 UTC. Time now 2017-May-24 10:02 UTC.
Position N 53°07' E 004°28'.

Length 88 m; draft 5.6 m.

Type: Cargo ship. MMSI: 314188000.

Date/timePositionNaut miles runAvg speedWind from/ knotsBaromVisibWave heightAir tempDewpointWater temp
2017-May-24 01:28N 53°07' E 004°28'511.1
2017-May-24 01:00N 53°02' E 004°24'510.8
2017-May-24 00:30N 52°57' E 004°19'510.7
2017-May-24 00:00N 52°53' E 004°15'510.2
2017-May-23 23:30N 52°48' E 004°10'5 9.9
2017-May-23 22:57N 52°44' E 004°05'97 9.3
2017-May-23 12:29N 51°31' E 002°21'511.3
2017-May-23 12:00N 51°26' E 002°16'611.2
2017-May-23 11:30N 51°21' E 002°11'611.4
2017-May-23 11:00N 51°17' E 002°06'611.8
2017-May-23 10:30N 51°12' E 001°60'612.0
2017-May-23 10:00N 51°09' E 001°52'612.2
2017-May-23 09:30N 51°05' E 001°45'612.5
2017-May-23 09:00N 50°60' E 001°38'81 9.7
2017-May-23 00:39N 49°57' E 000°19'1 7.9
2017-May-23 00:29N 49°56' E 000°18'4 7.9
2017-May-23 00:00N 49°53' E 000°14'4 8.0
2017-May-22 23:30N 49°50' E 000°10'4 8.4
2017-May-22 23:00N 49°46' E 000°06'4 9.1
2017-May-22 22:31N 49°43' E 000°02'5 9.2
2017-May-22 22:00N 49°39' W 000°01'5 9.2
2017-May-22 21:30N 49°34' W 000°04'5 9.0
2017-May-22 21:00N 49°30' W 000°05'4 8.3
2017-May-22 20:30N 49°27' E 000°00'4 8.1
2017-May-22 20:00N 49°26' E 000°06'4 8.5
2017-May-22 19:30N 49°26' E 000°13'4 7.9
2017-May-22 19:00N 49°26' E 000°19'4 7.1
2017-May-22 18:30N 49°27' E 000°24'3 6.4
2017-May-22 18:00N 49°29' E 000°28'2 4.7
2017-May-22 17:30N 49°28' E 000°32'3 5.7
2017-May-22 16:59N 49°26' E 000°35'3 6.3
2017-May-22 16:29N 49°27' E 000°39'6 0.2
2017-May-21 04:52N 49°27' E 000°49'6 6.9
2017-May-21 03:59N 49°29' E 000°40'5 9.5
2017-May-21 03:31N 49°26' E 000°34'5 9.3
2017-May-21 03:01N 49°28' E 000°28'611.4
2017-May-21 02:30N 49°26' E 000°20'510.7
2017-May-21 02:01N 49°26' E 000°11'510.3
2017-May-21 01:31N 49°27' E 000°04'510.2
2017-May-21 01:01N 49°29' W 000°03'4 7.7
2017-May-21 00:31N 49°30' W 000°09'2 4.7
2017-May-21 00:01N 49°32' W 000°11'4 8.4
2017-May-20 23:31N 49°36' W 000°11'4 8.4
2017-May-20 23:01N 49°40' W 000°11'4 8.6
2017-May-20 22:30N 49°45' W 000°10'4 8.7
2017-May-20 22:00N 49°49' W 000°10'4 8.5
2017-May-20 21:30N 49°53' W 000°09'4 8.7
2017-May-20 21:00N 49°57' W 000°08'4 8.8
2017-May-20 20:31N 50°02' W 000°08'4 8.6
2017-May-20 20:01N 50°06' W 000°06'4 8.6
2017-May-20 19:31N 50°10' W 000°05'5 9.0
2017-May-20 18:59N 50°15' W 000°04'4 9.0
2017-May-20 18:30N 50°19' W 000°03'6 8.8
2017-May-20 17:53N 50°25' W 000°03'3 6.8
2017-May-20 17:30N 50°27' W 000°01'4 7.3
2017-May-20 17:00N 50°28' E 000°04'4 7.1
2017-May-20 16:31N 50°29' E 000°10'3 6.9
2017-May-20 16:00N 50°30' E 000°15'4 6.8
2017-May-20 15:29N 50°31' E 000°20'3 7.0
2017-May-20 14:59N 50°32' E 000°25'4 7.4
2017-May-20 14:29N 50°33' E 000°31'8 7.7
2017-May-20 13:30N 50°37' E 000°41'10 8.5
2017-May-20 12:23N 50°43' E 000°53'19 8.8
2017-May-20 10:14N 50°54' E 001°17'2 8.4
2017-May-20 09:58N 50°56' E 001°20'5 8.2
2017-May-20 09:24N 50°59' E 001°25'3 7.7
2017-May-20 09:01N 51°01' E 001°28'3 6.7
2017-May-20 08:30N 51°04' E 001°32'4 7.5
2017-May-20 08:00N 51°06' E 001°36'4 7.4
2017-May-20 07:30N 51°09' E 001°40'4 7.4
2017-May-20 07:01N 51°12' E 001°44'4 8.1
2017-May-20 06:30N 51°15' E 001°48'4 7.9
2017-May-20 06:01N 51°18' E 001°52'4 7.9
2017-May-20 05:31N 51°21' E 001°55'4 8.3
2017-May-20 05:01N 51°25' E 001°59'4 8.8
2017-May-20 04:30N 51°29' E 002°03'5 9.0
2017-May-20 04:00N 51°32' E 002°08'5 9.4
2017-May-20 03:28N 51°36' E 002°13'20 9.7
2017-May-20 01:25N 51°51' E 002°34'11 9.3
2017-May-20 00:15N 51°59' E 002°45'3 8.8
2017-May-19 23:57N 52°01' E 002°48'51 7.8
2017-May-19 17:20N 52°31' E 003°56'3 8.3
2017-May-19 17:00N 52°31' E 004°01'4 8.1
2017-May-19 16:31N 52°31' E 004°07'4 8.1
2017-May-19 16:01N 52°31' E 004°14'4 8.1
2017-May-19 15:30N 52°30' E 004°20'4 8.0
2017-May-19 15:00N 52°29' E 004°27'6 5.6
2017-May-19 14:00N 52°28' E 004°36'2 4.5
2017-May-19 13:31N 52°28' E 004°39'4 8.2
2017-May-19 12:58N 52°26' E 004°46'2 3.8
2017-May-19 12:25N 52°25' E 004°49'0 0.1
2017-May-19 12:01N 52°25' E 004°49'0 0.1
2017-May-19 11:30N 52°25' E 004°49'0 0.0
2017-May-19 11:00N 52°25' E 004°49'0 0.0
2017-May-19 10:20N 52°25' E 004°49'0 0.0
2017-May-19 09:56N 52°25' E 004°49'0 0.0
2017-May-19 09:20N 52°25' E 004°49'0 0.1
2017-May-19 09:00N 52°25' E 004°49'0 0.0
2017-May-19 08:31N 52°25' E 004°49'0 0.1
2017-May-19 07:58N 52°25' E 004°49'0 0.0
2017-May-19 07:28N 52°25' E 004°49'0 0.0
2017-May-19 06:42N 52°25' E 004°49'0 0.0
2017-May-19 06:30N 52°25' E 004°49'0 0.0
2017-May-19 06:00N 52°25' E 004°49'0 0.0
2017-May-19 05:30N 52°25' E 004°49'0 0.0
2017-May-19 04:53N 52°25' E 004°49'0 0.1
2017-May-19 04:31N 52°25' E 004°49'0 0.1
2017-May-19 04:00N 52°25' E 004°49'0 0.0
2017-May-19 03:30N 52°25' E 004°49'0 0.0
2017-May-19 02:58N 52°25' E 004°49'0 0.0
2017-May-19 02:30N 52°25' E 004°49'0 0.1
2017-May-19 02:00N 52°25' E 004°49'0 0.0
2017-May-19 01:29N 52°25' E 004°49'0 0.1
2017-May-19 00:56N 52°25' E 004°49'0 0.0
2017-May-19 00:30N 52°25' E 004°49'0 0.0
2017-May-18 23:59N 52°25' E 004°49'0 0.0
2017-May-18 23:30N 52°25' E 004°49'0 0.0
2017-May-18 22:59N 52°25' E 004°49'0 0.0
2017-May-18 22:31N 52°25' E 004°49'2 3.4
2017-May-18 22:01N 52°26' E 004°46'4 7.9
2017-May-18 21:30N 52°27' E 004°40'3 3.3
2017-May-18 20:30N 52°28' E 004°35'3 5.1
2017-May-18 20:00N 52°28' E 004°31'510.0
2017-May-18 19:31N 52°28' E 004°23'510.3
2017-May-18 19:00N 52°29' E 004°14'5 9.3
2017-May-18 18:30N 52°28' E 004°06'5 9.1
2017-May-18 17:56N 52°27' E 003°58'80 8.4
2017-May-18 08:29N 51°33' E 002°23'5 9.6
2017-May-18 08:00N 51°29' E 002°19'510.1
2017-May-18 07:30N 51°25' E 002°15'510.0
2017-May-18 07:00N 51°21' E 002°10'611.4
2017-May-18 06:30N 51°16' E 002°05'611.6
2017-May-18 06:00N 51°12' E 001°59'510.6
2017-May-18 05:30N 51°09' E 001°52'510.7
2017-May-18 05:00N 51°05' E 001°46'611.2
2017-May-18 04:30N 51°01' E 001°40'611.8
2017-May-18 04:00N 50°57' E 001°34'272 6.9
2017-May-16 12:17N 50°33' W 005°35'2 7.7
2017-May-16 12:00N 50°35' W 005°33'4 7.6
2017-May-16 11:30N 50°37' W 005°28'4 7.5
2017-May-16 11:00N 50°40' W 005°24'4 7.3
2017-May-16 10:30N 50°42' W 005°19'3 6.9
2017-May-16 10:00N 50°44' W 005°15'3 6.6
2017-May-16 09:30N 50°46' W 005°11'3 6.3
2017-May-16 09:00N 50°48' W 005°07'3 6.0
2017-May-16 08:30N 50°50' W 005°03'3 6.0
2017-May-16 08:00N 50°52' W 004°60'3 5.8
2017-May-16 07:30N 50°54' W 004°56'3 5.7
2017-May-16 07:00N 50°56' W 004°53'3 5.9
2017-May-16 06:30N 50°58' W 004°49'3 5.8
2017-May-16 06:00N 50°60' W 004°46'3 5.7
2017-May-16 05:30N 51°02' W 004°42'3 5.9
2017-May-16 05:00N 51°03' W 004°39'3 6.2
2017-May-16 04:30N 51°05' W 004°35'3 6.2
2017-May-16 04:00N 51°07' W 004°31'9 7.1
2017-May-16 02:47N 51°13' W 004°21'2 7.9
2017-May-16 02:30N 51°14' W 004°18'4910.1
2017-May-15 21:39N 51°29' W 003°03'2 9.8
2017-May-15 21:28N 51°31' W 003°01'4 1.0
2017-May-15 17:45N 51°34' W 002°58'0 0.0
2017-May-15 17:23N 51°34' W 002°58'0 0.0
2017-May-15 16:59N 51°34' W 002°58'0 0.0
2017-May-15 12:59N 51°34' W 002°58'0 0.0
2017-May-15 09:38N 51°34' W 002°58'0 0.0
2017-May-15 09:01N 51°34' W 002°58'0 0.0
2017-May-15 08:43N 51°34' W 002°58'0 0.0
2017-May-15 06:31N 51°34' W 002°58'0 0.9
2017-May-15 06:30N 51°34' W 002°58'0 0.0
2017-May-15 05:57N 51°34' W 002°58'0 0.0
2017-May-15 04:39N 51°34' W 002°58'0 0.0
2017-May-15 04:26N 51°34' W 002°58'0 0.0
2017-May-15 03:56N 51°34' W 002°58'0 0.0
2017-May-15 03:26N 51°34' W 002°58'0 0.0
2017-May-15 02:55N 51°34' W 002°58'0 0.0
2017-May-15 00:06N 51°34' W 002°58'0 0.0
2017-May-14 23:54N 51°34' W 002°58'0 0.0
2017-May-14 23:30N 51°34' W 002°58'0 0.0
2017-May-14 22:51N 51°34' W 002°58'0 0.0
2017-May-14 20:57N 51°34' W 002°58'2 2.8
2017-May-14 20:12N 51°32' W 002°58'210.7
2017-May-14 20:00N 51°30' W 003°00'  

Dump ship's entire track history